BUCHANAN DAM (BUC)

Elevation: 450' · CHOWCHILLA R basin · Operator: US Army Corps of Engineers

Provisional data, subject to change.
Query executed Friday at 18:20:44   clock

Select a sensor type for a plot of data.
Note: Reservoir Flows are daily averages.

Earlier

Date RES ELE    STORAGE    RES CHG    TOC STO    ABV TOC    OUTFLOW    INFLOW    PPT INC    TEMP MN    TEMP MX   
 FEET   AF   AF   AF   AF   CFS   CFS   INCHES   DEG F   DEG F  
07/27/2016 490.89 26230 -566 150000 -123770 288 12 -- 22 44
07/28/2016 490.19 25671 -559 150000 -124329 284 11 -- 22 43
07/29/2016 489.69 25276 146818 150000 22489 271 80 -- 23 44
07/30/2016 489.06 24780 -496 150000 -125220 261 19 -- 23 43
07/31/2016 488.44 24298 -482 150000 -125702 223 -11 -- 22 40
08/01/2016 487.86 23852 -446 150000 -126148 212 -4 -- 18 38
08/02/2016 487.17 23326 -- 150000 -- 260 3 -- 19 39
08/03/2016 486.49 22813 -513 150000 -127187 250 -1 -- 19 39
08/04/2016 485.75 22262 -551 150000 -127738 279 9 -- 18 38
08/05/2016 485.04 21739 -523 150000 -128261 252 -5 -- 14 34
08/06/2016 484.38 21259 -480 150000 -128741 231 -4 -- 15 36
08/07/2016 483.76 20813 -446 150000 -129187 217 -1 -- 15 36
08/08/2016 483.22 20429 -384 150000 -129571 189 3 -- 15 36
08/09/2016 482.66 20034 -395 150000 -129966 192 -0 -- 15 35
08/10/2016 482.00 19574 -460 150000 -130426 225 -0 -- 16 36
08/11/2016 481.28 19078 -496 150000 -130922 243 0 -- 18 37
08/12/2016 480.47 18528 -550 150000 -131472 279 9 -- 17 39
08/13/2016 479.47 17861 -667 150000 -132139 359 30 -- 19 41
08/14/2016 478.34 17123 -738 150000 -132877 396 31 -- 21 42
08/15/2016 477.19 16389 -734 150000 -133611 400 36 -- 19 39
08/16/2016 475.94 15610 -779 150000 -134390 433 47 -- 18 39
08/17/2016 474.60 14798 -812 150000 -135202 458 54 -- 20 40
08/18/2016 473.19 13969 -829 150000 -136031 468 56 -- 20 40
08/19/2016 471.71 13127 -842 150000 -136873 490 70 -- 20 39
08/20/2016 470.15 12271 -856 150000 -137729 488 62 -- 19 38
08/21/2016 469.48 11913 -358 150000 -138087 201 25 -- 19 38
08/22/2016 469.47 11908 -5 150000 -138092 1 3 -- 17 36
08/23/2016 469.45 11897 -11 150000 -138103 0 -1 -- 18 37
08/24/2016 469.43 11887 -10 150000 -138113 0 -0 -- 16 38
08/25/2016 469.41 11876 -11 150000 -138124 0 -1 -- 15 36
08/26/2016 -- -- -- -- -- -- -- -- -- --

Later | Latest

Warning! This data is preliminary and subject to revision.

Show BUC Map | Plot BUC Data | 1 Month BUC Data | Real-Time BUC Data | BUC Info